createdAt,value
2018-07-11T00:29:11.135Z,26.40
2018-07-11T00:31:20.975Z,999.90
2018-07-11T00:33:30.260Z,730.63
2018-07-11T00:35:43.191Z,644.08
2018-07-11T00:37:52.325Z,552.80
2018-07-11T00:40:01.530Z,529.93
2018-07-11T00:42:11.177Z,500.23
2018-07-11T00:44:21.490Z,507.77
2018-07-11T00:46:38.360Z,454.93
2018-07-11T00:48:48.992Z,452.23
2018-07-11T00:50:58.237Z,415.53
2018-07-11T00:53:08.467Z,389.23
2018-07-11T00:55:18.436Z,334.93
2018-07-11T00:57:28.328Z,341.17
2018-07-11T00:59:38.561Z,328.07
2018-07-11T01:01:50.495Z,300.57
2018-07-11T01:04:02.052Z,303.47
2018-07-11T01:06:12.060Z,300.20
2018-07-11T01:08:22.242Z,295.70
2018-07-11T01:10:32.775Z,274.80
2018-07-11T01:12:42.761Z,271.37
2018-07-11T01:14:53.215Z,265.33
2018-07-11T01:17:03.496Z,260.37
2018-07-11T01:19:14.834Z,249.40
2018-07-11T01:21:24.338Z,244.90
2018-07-11T01:23:35.141Z,232.93
2018-07-11T01:25:45.077Z,232.53
2018-07-11T01:27:54.773Z,228.57
2018-07-11T01:30:04.678Z,227.13
2018-07-11T01:32:19.331Z,223.43
2018-07-11T01:34:29.159Z,212.37
2018-07-11T01:36:38.724Z,207.20
2018-07-11T01:38:49.061Z,199.80
2018-07-11T01:40:58.939Z,191.20
2018-07-11T01:43:09.039Z,170.93
2018-07-11T01:45:19.552Z,167.63
2018-07-11T01:47:28.982Z,154.40
2018-07-11T01:49:39.840Z,156.83
2018-07-11T01:51:57.707Z,139.50
2018-07-11T01:54:08.233Z,137.80
2018-07-11T01:56:18.874Z,125.40
2018-07-11T01:58:28.708Z,124.43
2018-07-11T02:00:38.960Z,121.00
2018-07-11T02:02:48.414Z,116.47
2018-07-11T02:04:58.271Z,111.70
2018-07-11T02:07:07.726Z,107.32
2018-07-11T02:09:17.400Z,104.57
2018-07-11T02:11:27.263Z,97.67
2018-07-11T02:13:37.497Z,98.13
2018-07-11T02:15:47.409Z,94.23
2018-07-11T02:17:57.521Z,88.30
2018-07-11T02:20:08.372Z,88.63
2018-07-11T02:22:18.529Z,83.70
2018-07-11T02:24:30.392Z,80.97
2018-07-11T02:26:40.140Z,79.23
2018-07-11T02:28:49.817Z,72.37
2018-07-11T02:30:59.014Z,68.63
2018-07-11T02:33:08.967Z,68.63
2018-07-11T02:35:18.093Z,65.63
2018-07-11T02:37:27.391Z,58.30
2018-07-11T02:39:37.331Z,57.87
2018-07-11T02:41:47.597Z,55.67
2018-07-11T02:43:58.605Z,50.03
2018-07-11T02:46:07.838Z,45.93
2018-07-11T02:48:17.917Z,49.37
2018-07-11T02:50:27.575Z,45.17
2018-07-11T02:52:37.210Z,47.37
2018-07-11T02:54:46.988Z,48.23
2018-07-11T02:56:56.410Z,46.23
2018-07-11T02:59:05.297Z,46.70
2018-07-11T03:01:14.838Z,47.97
2018-07-11T03:03:24.152Z,43.27
2018-07-11T03:05:33.565Z,44.57
2018-07-11T03:07:47.876Z,42.53
2018-07-11T03:09:57.304Z,39.20
2018-07-11T03:12:12.935Z,39.80
2018-07-11T03:14:23.172Z,39.33
2018-07-11T03:16:32.696Z,39.53
2018-07-11T03:18:41.928Z,40.83
2018-07-11T03:20:51.578Z,36.10
2018-07-11T03:23:03.388Z,35.97
2018-07-11T03:25:12.457Z,36.27
2018-07-11T03:27:21.748Z,38.63
2018-07-11T03:29:31.201Z,36.53
2018-07-11T03:31:41.087Z,33.40
2018-07-11T03:33:50.368Z,33.07
2018-07-11T03:36:00.345Z,33.07
2018-07-11T03:38:11.355Z,31.70
2018-07-11T03:40:20.785Z,32.27
2018-07-11T03:42:30.311Z,31.50
2018-07-11T03:44:39.361Z,30.07
2018-07-11T03:46:48.689Z,30.73
2018-07-11T03:48:57.843Z,30.93
2018-07-11T03:51:07.685Z,28.00
2018-07-11T03:53:17.035Z,28.80
2018-07-11T04:40:17.097Z,28.73
2018-07-11T05:30:33.963Z,22.03
2018-07-11T05:32:45.204Z,26.63
2018-07-11T05:34:55.438Z,24.53
2018-07-11T05:37:05.921Z,25.00
2018-07-11T05:39:16.675Z,24.93
2018-07-11T05:41:26.018Z,26.47
2018-07-11T05:43:36.570Z,24.97
2018-07-11T05:45:46.829Z,25.23
2018-07-11T05:47:56.124Z,26.70
2018-07-11T05:50:06.149Z,24.37
2018-07-11T05:52:15.594Z,24.53
2018-07-11T05:54:25.238Z,25.37
2018-07-11T05:56:35.462Z,25.77
2018-07-11T05:58:48.301Z,27.13
2018-07-11T06:00:57.835Z,26.63
2018-07-11T06:03:08.900Z,25.37
2018-07-11T06:05:20.476Z,26.90
2018-07-11T06:07:29.917Z,26.40
2018-07-11T06:09:39.811Z,27.43
2018-07-11T06:11:49.359Z,26.87
2018-07-11T06:13:58.628Z,25.10
2018-07-11T06:16:07.831Z,25.17
2018-07-11T06:18:19.991Z,26.30
2018-07-11T06:20:32.457Z,26.17
2018-07-11T06:22:42.343Z,25.90
2018-07-11T06:24:54.259Z,22.83
2018-07-11T06:27:06.950Z,26.37
2018-07-11T06:29:22.972Z,25.77
2018-07-11T06:31:33.893Z,25.33
2018-07-11T06:33:44.442Z,23.73
2018-07-11T06:35:56.554Z,26.30
2018-07-11T06:38:06.410Z,27.60
2018-07-11T06:40:17.971Z,25.57
2018-07-11T06:42:28.718Z,25.13
2018-07-11T06:44:38.203Z,26.23
2018-07-11T06:46:47.288Z,25.50
2018-07-11T06:48:56.411Z,25.57
2018-07-11T06:51:10.080Z,27.57
2018-07-11T06:53:22.365Z,27.10
2018-07-11T06:55:31.809Z,25.53
2018-07-11T06:57:40.963Z,24.73
2018-07-11T06:59:50.015Z,26.53
2018-07-11T07:02:00.125Z,24.07
2018-07-11T07:04:09.460Z,24.70
2018-07-11T07:06:20.474Z,24.37
2018-07-11T07:08:33.043Z,22.50
2018-07-11T07:10:43.534Z,26.10
2018-07-11T07:12:55.707Z,24.60
2018-07-11T07:15:06.331Z,23.80
2018-07-11T07:17:16.643Z,24.70
2018-07-11T07:19:26.026Z,25.30
2018-07-11T07:21:37.512Z,22.90
2018-07-11T07:23:47.166Z,23.70
2018-07-11T07:25:56.167Z,24.90
2018-07-11T07:28:05.536Z,24.07
2018-07-11T07:30:15.449Z,25.00
2018-07-11T07:32:28.860Z,23.97
2018-07-11T07:34:43.206Z,23.83
2018-07-11T07:36:56.833Z,25.63
2018-07-11T07:39:10.135Z,25.57
2018-07-11T07:41:23.490Z,24.43
2018-07-11T07:43:33.921Z,25.37
2018-07-11T07:45:46.146Z,25.13
2018-07-11T07:47:59.094Z,24.77
2018-07-11T07:50:08.252Z,25.23
2018-07-11T07:52:17.416Z,26.73
2018-07-11T07:54:30.151Z,24.70
2018-07-11T07:56:39.472Z,24.67
2018-07-11T07:58:48.658Z,24.47
2018-07-11T08:00:57.938Z,24.00
2018-07-11T08:03:07.287Z,23.67
2018-07-11T08:05:16.946Z,23.40
2018-07-11T08:07:25.881Z,23.40
2018-07-11T08:09:35.360Z,23.57
2018-07-11T08:11:44.779Z,24.57
2018-07-11T08:13:54.089Z,23.43
2018-07-11T08:16:03.060Z,22.37
2018-07-11T08:18:13.293Z,22.87
2018-07-11T08:20:23.734Z,24.20
2018-07-11T08:23:16.951Z,24.43
2018-07-11T08:25:34.112Z,25.80
2018-07-11T08:27:53.024Z,24.30
2018-07-11T08:30:41.603Z,24.03
2018-07-11T08:35:06.283Z,23.77
2018-07-11T08:39:56.569Z,23.87
2018-07-11T08:42:23.314Z,24.40
2018-07-11T08:46:43.495Z,23.77
2018-07-11T08:49:21.332Z,23.50
2018-07-11T08:51:38.674Z,22.40
2018-07-11T08:56:04.823Z,22.90
2018-07-11T08:58:41.385Z,23.10
2018-07-11T09:01:33.534Z,22.60
2018-07-11T09:03:53.357Z,24.33
2018-07-11T09:08:16.944Z,23.40
2018-07-11T09:10:34.008Z,25.03
2018-07-11T09:14:53.554Z,24.60
2018-07-11T09:17:11.074Z,24.83
2018-07-11T09:20:31.408Z,23.73
2018-07-11T09:22:56.548Z,23.50
2018-07-11T09:25:06.417Z,22.90
2018-07-11T09:27:17.221Z,24.70
2018-07-11T09:29:29.367Z,22.90
2018-07-11T09:31:39.326Z,23.07
2018-07-11T09:33:53.030Z,24.40
2018-07-11T09:36:05.434Z,24.10
2018-07-11T09:38:14.590Z,24.50
2018-07-11T09:40:25.536Z,23.20
2018-07-11T09:42:35.217Z,24.80
2018-07-11T09:44:48.490Z,26.67
2018-07-11T09:46:58.776Z,23.60
2018-07-11T09:49:12.399Z,26.10
2018-07-11T09:51:23.781Z,23.90
2018-07-11T09:53:35.887Z,23.63
2018-07-11T09:55:45.556Z,25.10
2018-07-11T09:57:54.893Z,55.60
2018-07-11T10:00:04.350Z,317.10
2018-07-11T10:02:14.144Z,154.60
2018-07-11T10:04:23.526Z,104.30
2018-07-11T10:06:32.944Z,63.07
2018-07-11T10:08:42.137Z,64.50
2018-07-11T10:10:51.857Z,60.90
2018-07-11T10:13:00.906Z,58.70
2018-07-11T10:15:11.045Z,57.30
2018-07-11T10:17:20.230Z,53.80
2018-07-11T10:19:32.630Z,47.47
2018-07-11T10:21:43.473Z,46.40
2018-07-11T10:23:51.277Z,44.50
2018-07-11T10:26:00.645Z,46.10
2018-07-11T10:28:21.439Z,44.17
2018-07-11T10:30:30.710Z,45.27
2018-07-11T10:32:40.228Z,42.10
2018-07-11T10:34:49.917Z,42.10
2018-07-11T10:36:59.742Z,43.80
2018-07-11T10:39:12.013Z,42.57
2018-07-11T10:41:21.612Z,39.87
2018-07-11T10:43:32.969Z,40.43
2018-07-11T10:45:43.691Z,41.10
2018-07-11T10:47:53.995Z,39.37
2018-07-11T10:50:04.652Z,38.80
2018-07-11T10:52:17.240Z,36.63
2018-07-11T10:54:26.331Z,38.10
2018-07-11T10:56:35.419Z,38.40
2018-07-11T10:58:44.992Z,35.73
2018-07-11T11:01:05.703Z,39.80
2018-07-11T11:03:04.425Z,38.03
2018-07-11T11:05:13.791Z,37.80
2018-07-11T11:07:24.742Z,36.93
2018-07-11T11:09:33.788Z,37.50
2018-07-11T11:11:43.116Z,38.63
2018-07-11T11:13:54.418Z,38.00
2018-07-11T11:16:03.853Z,38.40
2018-07-11T11:18:13.431Z,35.63
2018-07-11T11:20:23.395Z,35.63
2018-07-11T11:22:33.201Z,34.30
2018-07-11T11:24:42.446Z,37.63
2018-07-11T11:26:52.991Z,35.00
2018-07-11T11:29:02.801Z,34.33
2018-07-11T11:31:13.274Z,35.00
2018-07-11T11:33:23.411Z,33.20
2018-07-11T11:35:37.438Z,32.10
2018-07-11T11:37:47.112Z,32.97
2018-07-11T11:39:56.032Z,32.57
2018-07-11T11:42:05.451Z,30.73
2018-07-11T11:44:14.787Z,28.90
2018-07-11T11:46:23.928Z,27.23
2018-07-11T11:48:35.641Z,29.17
2018-07-11T11:50:45.806Z,26.93
2018-07-11T11:52:55.098Z,24.53
2018-07-11T11:55:04.742Z,25.83
2018-07-11T11:57:13.984Z,25.20
2018-07-11T11:59:26.524Z,24.40
2018-07-11T12:01:36.716Z,22.70
2018-07-11T12:03:45.984Z,23.40
2018-07-11T12:05:55.463Z,21.93
2018-07-11T12:08:04.988Z,22.90
2018-07-11T12:10:14.386Z,22.20
2018-07-11T12:12:24.244Z,22.23
2018-07-11T12:14:34.103Z,21.97
2018-07-11T12:16:43.574Z,20.43
2018-07-11T12:18:53.539Z,19.73
2018-07-11T12:21:04.109Z,19.53
2018-07-11T12:23:15.512Z,19.87
2018-07-11T12:25:27.052Z,19.50
2018-07-11T12:27:38.565Z,20.13
2018-07-11T12:29:48.032Z,21.07
2018-07-11T12:31:57.278Z,19.87
2018-07-11T12:34:06.785Z,21.10
2018-07-11T12:36:16.369Z,20.20
2018-07-11T12:38:26.541Z,21.07
2018-07-11T12:40:36.409Z,20.00
2018-07-11T12:42:46.661Z,20.10
2018-07-11T12:44:56.427Z,19.70
2018-07-11T12:47:09.064Z,19.63
2018-07-11T12:49:18.266Z,19.30
2018-07-11T12:51:27.704Z,21.50
2018-07-11T12:53:37.700Z,20.53
2018-07-11T12:55:47.114Z,20.47
2018-07-11T12:57:56.722Z,20.43
2018-07-11T13:00:04.508Z,20.83
2018-07-11T13:02:15.521Z,20.93
2018-07-11T13:04:25.731Z,18.00
2018-07-11T13:06:35.104Z,18.93
2018-07-11T13:08:45.527Z,19.30
2018-07-11T13:10:55.779Z,18.37
2018-07-11T13:13:05.037Z,17.07
2018-07-11T13:15:14.653Z,17.27
2018-07-11T13:17:23.694Z,17.47
2018-07-11T13:19:33.197Z,17.20
2018-07-11T13:21:42.763Z,16.93
2018-07-11T13:23:52.481Z,17.37
2018-07-11T13:26:01.972Z,16.40
2018-07-11T13:28:11.457Z,18.17
2018-07-11T13:46:26.591Z,17.70
2018-07-11T13:48:36.651Z,15.43
2018-07-11T13:50:46.212Z,16.80
2018-07-11T14:08:58.906Z,16.23
2018-07-11T14:11:08.310Z,14.60
2018-07-11T14:13:17.787Z,14.03
2018-07-11T14:15:27.108Z,14.60
2018-07-11T14:17:36.584Z,14.60
2018-07-11T14:19:46.439Z,15.73
2018-07-11T14:21:56.872Z,13.90
2018-07-11T14:24:06.064Z,15.00
2018-07-11T14:26:17.608Z,14.37
2018-07-11T14:28:27.055Z,14.20
2018-07-11T14:30:36.955Z,14.07
2018-07-11T14:32:54.968Z,13.67
2018-07-11T14:35:04.477Z,15.40
2018-07-11T14:37:13.851Z,14.70
2018-07-11T14:39:23.311Z,14.57
2018-07-11T14:41:33.287Z,15.30
2018-07-11T14:43:42.887Z,13.40
2018-07-11T14:45:53.115Z,14.30
2018-07-11T14:48:06.467Z,14.03
2018-07-11T14:50:16.973Z,15.33
2018-07-11T14:52:27.470Z,17.50
2018-07-11T14:54:37.066Z,18.03
2018-07-11T14:56:46.795Z,16.83
2018-07-11T14:59:00.205Z,22.93
2018-07-11T15:01:09.779Z,19.13
2018-07-11T15:03:19.082Z,18.50
2018-07-11T15:05:29.166Z,17.10
2018-07-11T15:07:42.704Z,17.33
2018-07-11T15:09:52.004Z,17.77
2018-07-11T15:12:02.017Z,17.17
2018-07-11T15:14:11.499Z,23.47
2018-07-11T15:16:21.237Z,27.00
2018-07-11T15:18:30.818Z,32.87
2018-07-11T15:20:40.532Z,27.13
2018-07-11T15:22:50.287Z,31.23
2018-07-11T15:25:00.904Z,30.00
2018-07-11T15:27:12.267Z,32.60
2018-07-11T15:29:22.940Z,34.50
2018-07-11T15:31:32.641Z,36.20
2018-07-11T15:33:42.058Z,32.70
2018-07-11T15:35:51.704Z,32.50
2018-07-11T15:38:00.759Z,33.40
2018-07-11T15:40:09.881Z,33.53
2018-07-11T15:42:19.162Z,32.73
2018-07-11T15:44:28.987Z,34.30
2018-07-11T15:46:40.382Z,33.07
2018-07-11T15:48:50.523Z,33.97
2018-07-11T15:50:59.628Z,34.90
2018-07-11T15:53:09.135Z,35.27
2018-07-11T15:55:19.549Z,34.13
2018-07-11T15:57:39.923Z,34.53
2018-07-11T15:59:57.116Z,33.70
2018-07-11T16:02:06.383Z,36.90
2018-07-11T16:04:16.313Z,33.27
2018-07-11T16:06:26.035Z,36.23
2018-07-11T16:08:35.739Z,35.53
2018-07-11T16:10:49.667Z,34.60
2018-07-11T16:12:59.173Z,33.73
2018-07-11T16:15:09.166Z,34.60
2018-07-11T16:17:18.701Z,35.63
2018-07-11T16:19:28.007Z,35.43
2018-07-11T16:21:37.644Z,33.27
2018-07-11T16:23:47.472Z,34.57
2018-07-11T16:25:57.400Z,37.70
2018-07-11T16:28:07.858Z,35.00
2018-07-11T16:30:17.516Z,33.23
2018-07-11T16:32:27.046Z,33.17
2018-07-11T16:34:36.645Z,35.27
2018-07-11T16:36:47.055Z,36.87
2018-07-11T16:38:56.443Z,34.40
2018-07-11T16:41:06.102Z,34.70
2018-07-11T16:43:15.438Z,34.00
2018-07-11T16:45:25.123Z,34.67
2018-07-11T16:47:35.159Z,35.70
2018-07-11T16:49:45.082Z,35.03
2018-07-11T16:51:54.562Z,34.37
2018-07-11T16:54:03.903Z,34.73
2018-07-11T16:56:13.249Z,34.10
2018-07-11T16:58:28.208Z,36.93
2018-07-11T17:00:38.189Z,34.40
2018-07-11T17:02:50.344Z,36.57
2018-07-11T17:05:03.724Z,35.50
2018-07-11T17:07:14.584Z,34.27
2018-07-11T17:09:24.305Z,34.10
2018-07-11T17:11:34.482Z,34.10
2018-07-11T17:13:45.881Z,31.50
2018-07-11T17:15:57.686Z,34.23
2018-07-11T17:18:08.570Z,34.13
2018-07-11T17:20:18.590Z,35.17
2018-07-11T17:22:33.330Z,32.13
2018-07-11T17:24:49.630Z,32.40
2018-07-11T17:27:02.597Z,32.37
2018-07-11T17:29:12.683Z,33.80
2018-07-11T17:31:22.245Z,34.50
2018-07-11T17:33:32.625Z,32.30
2018-07-11T17:35:47.330Z,35.40
2018-07-11T17:37:56.954Z,32.27
2018-07-11T17:40:12.065Z,34.17
2018-07-11T17:42:28.356Z,33.70
2018-07-11T17:44:38.287Z,33.03
2018-07-11T17:46:48.664Z,35.50
2018-07-11T17:49:19.138Z,34.93
2018-07-11T17:51:43.616Z,34.77
2018-07-11T17:53:59.183Z,32.43
2018-07-11T17:56:16.090Z,33.80
2018-07-11T17:58:29.488Z,32.30
2018-07-11T18:00:55.519Z,34.60
2018-07-11T18:03:09.160Z,36.10
2018-07-11T18:05:27.298Z,34.70
2018-07-11T18:07:54.001Z,33.27
2018-07-11T18:10:09.953Z,34.57
2018-07-11T18:12:29.430Z,33.30
2018-07-11T18:15:29.100Z,33.73
2018-07-11T18:17:46.928Z,35.47
2018-07-11T18:20:34.359Z,35.60
2018-07-11T18:22:51.436Z,34.97
2018-07-11T18:25:08.678Z,35.60
2018-07-11T18:27:36.863Z,35.17
2018-07-11T18:31:53.854Z,35.60
2018-07-11T18:34:20.042Z,35.70
2018-07-11T18:36:48.830Z,36.53
2018-07-11T18:39:23.292Z,36.43
2018-07-11T18:45:50.759Z,35.80
2018-07-11T18:50:13.304Z,39.73
2018-07-11T18:52:35.096Z,37.27
2018-07-11T18:56:59.078Z,37.83
2018-07-11T19:00:13.122Z,37.80
2018-07-11T19:02:47.738Z,40.87
2018-07-11T19:05:05.024Z,41.80
2018-07-11T19:07:36.447Z,43.07
2018-07-11T19:09:57.793Z,41.90
2018-07-11T19:13:18.673Z,41.93
2018-07-11T19:16:04.214Z,43.07
2018-07-11T19:18:43.430Z,42.70
2018-07-11T19:21:05.141Z,41.10
2018-07-11T19:23:26.563Z,42.43
2018-07-11T19:26:46.241Z,41.30
2018-07-11T19:29:07.718Z,41.00
2018-07-11T19:31:27.609Z,41.50
2018-07-11T19:35:50.709Z,40.23
2018-07-11T19:38:25.532Z,38.53
2018-07-11T19:40:49.853Z,39.97
2018-07-11T19:45:23.725Z,41.50
2018-07-11T19:47:42.479Z,40.27
2018-07-11T19:50:01.096Z,40.40
2018-07-11T19:52:23.849Z,39.00
2018-07-11T19:55:41.194Z,40.97
2018-07-11T19:57:51.626Z,38.93
2018-07-11T20:00:01.378Z,38.90
2018-07-11T20:02:25.790Z,39.27
2018-07-11T20:04:35.257Z,37.97
2018-07-11T20:06:44.940Z,36.83
2018-07-11T20:08:55.308Z,37.40
2018-07-11T20:11:05.090Z,39.00
2018-07-11T20:13:14.968Z,40.77
2018-07-11T20:15:25.233Z,38.20
2018-07-11T20:17:35.527Z,39.80
2018-07-11T20:19:45.722Z,40.17
2018-07-11T20:21:56.559Z,38.67
2018-07-11T20:24:06.920Z,39.23
2018-07-11T20:26:17.420Z,38.33
2018-07-11T20:28:27.898Z,38.43
2018-07-11T20:30:37.128Z,36.17
2018-07-11T20:32:46.688Z,41.30
2018-07-11T20:34:57.016Z,37.83
2018-07-11T20:37:06.442Z,37.40
2018-07-11T20:39:15.767Z,37.13
2018-07-11T20:41:25.297Z,35.03
2018-07-11T20:43:34.395Z,37.10
2018-07-11T20:45:43.562Z,37.97
2018-07-11T20:47:52.582Z,39.70
2018-07-11T20:50:01.799Z,40.47
2018-07-11T20:52:11.322Z,38.03
2018-07-11T20:54:20.532Z,36.87
2018-07-11T20:56:30.559Z,37.93
2018-07-11T20:58:47.943Z,36.53
2018-07-11T21:01:05.535Z,39.50
2018-07-11T21:04:24.582Z,38.50
2018-07-11T21:06:44.591Z,36.00
2018-07-11T21:11:03.655Z,35.47
2018-07-11T21:14:24.989Z,35.10
2018-07-11T21:16:42.855Z,39.07
2018-07-11T21:19:04.866Z,37.90
2018-07-11T21:21:14.319Z,39.10
2018-07-11T21:23:25.013Z,38.63
2018-07-11T21:25:34.537Z,38.43
2018-07-11T21:27:44.148Z,37.87
2018-07-11T21:29:53.525Z,39.20
2018-07-11T21:32:02.984Z,38.70
2018-07-11T21:34:12.039Z,37.93
2018-07-11T21:36:21.766Z,39.17
2018-07-11T21:38:30.905Z,39.30
2018-07-11T21:40:40.766Z,39.43
2018-07-11T21:42:50.118Z,41.27
2018-07-11T21:44:59.582Z,36.60
2018-07-11T21:47:09.027Z,38.80
2018-07-11T21:49:24.528Z,36.87
2018-07-11T21:51:33.985Z,37.90
2018-07-11T21:53:43.567Z,38.37
2018-07-11T21:55:53.482Z,39.27
2018-07-11T21:58:02.918Z,38.67
2018-07-11T22:00:12.773Z,37.77
2018-07-11T22:02:22.690Z,38.17
2018-07-11T22:04:31.979Z,37.57
2018-07-11T22:06:41.514Z,37.23
2018-07-11T22:08:50.719Z,40.93
2018-07-11T22:11:00.044Z,40.60
2018-07-11T22:13:09.791Z,40.83
2018-07-11T22:15:20.097Z,40.20
2018-07-11T22:19:37.216Z,39.97
2018-07-11T22:21:42.833Z,39.53
2018-07-11T22:23:48.192Z,41.30
2018-07-11T22:25:53.957Z,39.80
2018-07-11T22:27:59.599Z,39.20
2018-07-11T22:30:05.219Z,40.20
2018-07-11T22:32:10.862Z,42.10
2018-07-11T22:34:16.134Z,39.13
2018-07-11T22:36:21.641Z,41.27
2018-07-11T22:38:27.131Z,42.50
2018-07-11T22:40:32.472Z,42.87
2018-07-11T22:42:40.304Z,39.40
2018-07-11T22:44:47.605Z,40.33
2018-07-11T22:46:53.627Z,39.60
2018-07-11T22:48:59.104Z,41.43
2018-07-11T22:51:04.552Z,44.70
2018-07-11T22:53:10.316Z,43.00
2018-07-11T22:55:16.154Z,40.43
2018-07-11T22:57:22.891Z,42.60
2018-07-11T22:59:28.504Z,44.23
2018-07-11T23:01:34.044Z,40.90
2018-07-11T23:03:40.862Z,42.57
2018-07-11T23:05:47.213Z,42.73
2018-07-11T23:07:52.816Z,47.80
2018-07-11T23:09:59.337Z,47.07
2018-07-11T23:12:05.830Z,47.80
2018-07-11T23:14:11.501Z,44.63
2018-07-11T23:16:16.953Z,43.50
2018-07-11T23:18:22.857Z,42.13
2018-07-11T23:20:28.881Z,41.47
2018-07-11T23:22:34.866Z,40.50
2018-07-11T23:24:40.452Z,44.13
2018-07-11T23:26:46.065Z,44.33
2018-07-11T23:28:51.975Z,45.57
2018-07-11T23:30:57.693Z,43.07
2018-07-11T23:33:03.365Z,45.00
2018-07-11T23:35:09.213Z,44.67
2018-07-11T23:37:14.816Z,44.00
2018-07-11T23:39:21.970Z,43.60
2018-07-11T23:41:27.491Z,44.27
2018-07-11T23:43:33.239Z,42.10
2018-07-11T23:45:39.088Z,41.93
2018-07-11T23:47:44.986Z,42.43
2018-07-11T23:49:50.449Z,43.67
2018-07-11T23:51:55.993Z,42.97
2018-07-11T23:54:01.561Z,44.80
2018-07-11T23:56:08.047Z,42.10
2018-07-11T23:58:13.662Z,40.40
